Time;durP1;ratioP1;P1;durP2;ratioP2;P2;SDS_P1;SDS_P2;PMS_P1;PMS_P2;Temp;Humidity;BMP_temperature;BMP_pressure;BME280_temperature;BME280_humidity;BME280_pressure;Samples;Min_cycle;Max_cycle;Signal;HPM_P1;HPM_P2
2021/10/14 00:00:46;;;;;;;7.90;4.07;;;14.40;99.90;;;;;;4901062;29;20212;-88
2021/10/14 00:03:13;;;;;;;7.10;5.00;;;14.30;99.90;;;;;;4889532;29;20218;-85
2021/10/14 00:05:40;;;;;;;7.50;4.90;;;14.40;99.90;;;;;;4882298;29;20200;-86
2021/10/14 00:08:07;;;;;;;7.37;5.27;;;14.40;99.90;;;;;;4881892;29;20247;-87
2021/10/14 00:10:34;;;;;;;10.13;7.22;;;14.40;99.90;;;;;;4882230;29;20236;-88
2021/10/14 00:13:00;;;;;;;9.47;7.20;;;14.50;99.90;;;;;;4882121;29;20223;-87
2021/10/14 00:15:29;;;;;;;10.93;7.53;;;14.50;99.90;;;;;;4882063;29;20550;-86
2021/10/14 00:17:56;;;;;;;6.27;4.30;;;14.40;99.90;;;;;;4881826;29;20192;-86
2021/10/14 00:20:22;;;;;;;5.67;3.10;;;14.40;99.90;;;;;;4882059;29;20200;-86
2021/10/14 00:22:49;;;;;;;5.33;3.10;;;14.40;99.90;;;;;;4882136;29;20210;-87
2021/10/14 00:25:19;;;;;;;5.22;2.95;;;14.30;99.90;;;;;;4881604;29;20212;-87
2021/10/14 00:27:46;;;;;;;5.27;3.17;;;14.30;99.90;;;;;;4882226;29;20203;-87
2021/10/14 00:30:13;;;;;;;7.17;4.07;;;14.30;99.90;;;;;;4882635;29;20223;-87
2021/10/14 00:32:42;;;;;;;5.93;3.50;;;14.30;99.90;;;;;;4881934;29;20211;-87
2021/10/14 00:35:10;;;;;;;3.60;3.30;;;14.30;99.90;;;;;;4881760;29;20216;-87
2021/10/14 00:37:37;;;;;;;5.40;4.10;;;14.20;99.90;;;;;;4880953;29;20208;-89
2021/10/14 00:40:05;;;;;;;6.30;4.53;;;14.20;99.90;;;;;;4881808;29;20617;-83
2021/10/14 00:42:32;;;;;;;6.10;4.63;;;14.20;99.90;;;;;;4881612;29;20216;-83
2021/10/14 00:44:59;;;;;;;7.17;5.63;;;14.20;99.90;;;;;;4881306;29;20212;-89
2021/10/14 00:47:29;;;;;;;6.60;5.23;;;14.10;99.90;;;;;;4881788;29;20516;-88
2021/10/14 00:49:58;;;;;;;8.53;5.53;;;14.10;99.90;;;;;;4881709;29;20536;-87
2021/10/14 00:52:25;;;;;;;6.20;5.20;;;14.10;99.90;;;;;;4881366;29;20207;-87
2021/10/14 00:54:55;;;;;;;5.73;4.87;;;14.10;99.90;;;;;;4882012;29;20207;-88
2021/10/14 00:57:22;;;;;;;6.63;5.10;;;14.10;99.90;;;;;;4882203;29;20207;-88
2021/10/14 00:59:49;;;;;;;5.23;4.50;;;14.10;99.90;;;;;;4881438;29;20223;-88
2021/10/14 01:02:16;;;;;;;6.47;4.88;;;14.10;99.90;;;;;;4881479;29;20207;-83
2021/10/14 01:04:43;;;;;;;6.67;5.37;;;14.00;99.90;;;;;;4882075;29;20204;-83
2021/10/14 01:07:11;;;;;;;9.90;6.33;;;14.10;99.90;;;;;;4889848;29;20254;-81
2021/10/14 01:09:40;;;;;;;10.63;8.30;;;14.10;99.90;;;;;;4900340;29;20243;-84
2021/10/14 01:12:08;;;;;;;14.63;8.93;;;14.20;99.90;;;;;;4895231;29;20606;-81
2021/10/14 01:14:35;;;;;;;17.52;9.70;;;14.20;99.90;;;;;;4880768;29;20485;-80
2021/10/14 01:17:02;;;;;;;15.55;10.23;;;14.20;99.90;;;;;;4882136;29;20212;-86
2021/10/14 01:19:29;;;;;;;15.50;11.25;;;14.30;99.90;;;;;;4882065;29;20638;-83
2021/10/14 01:21:57;;;;;;;23.90;13.45;;;14.30;99.90;;;;;;4881930;29;20210;-87
2021/10/14 01:24:24;;;;;;;18.25;11.02;;;14.40;99.90;;;;;;4881373;29;20616;-87
2021/10/14 01:26:52;;;;;;;12.63;6.77;;;14.60;99.90;;;;;;4865156;29;20219;-85
2021/10/14 01:29:19;;;;;;;8.20;4.25;;;14.50;99.90;;;;;;4881668;29;20212;-85
2021/10/14 01:31:46;;;;;;;6.03;3.93;;;14.50;99.90;;;;;;4881439;29;20232;-87
2021/10/14 01:34:16;;;;;;;8.30;4.30;;;14.50;99.90;;;;;;4885404;29;20207;-86
2021/10/14 01:36:43;;;;;;;7.88;4.25;;;14.50;99.90;;;;;;4900427;29;20199;-83
2021/10/14 01:39:11;;;;;;;5.75;3.90;;;14.50;99.90;;;;;;4898684;29;20492;-81
2021/10/14 01:41:38;;;;;;;6.13;4.00;;;14.50;99.90;;;;;;4899688;29;20294;-82
2021/10/14 01:44:05;;;;;;;9.45;5.47;;;14.40;99.90;;;;;;4900022;29;20200;-87
2021/10/14 01:46:32;;;;;;;9.27;6.30;;;14.40;99.90;;;;;;4899955;29;20203;-90
2021/10/14 01:48:59;;;;;;;10.53;6.33;;;14.50;99.90;;;;;;4893154;29;20208;-87
2021/10/14 01:51:25;;;;;;;13.13;6.77;;;14.50;99.90;;;;;;4884766;29;20238;-87
2021/10/14 01:53:52;;;;;;;13.48;7.70;;;14.50;99.90;;;;;;4884422;29;20200;-88
2021/10/14 01:56:20;;;;;;;12.70;6.43;;;14.50;99.90;;;;;;4884439;29;20211;-82
2021/10/14 01:58:47;;;;;;;10.73;7.33;;;14.50;99.90;;;;;;4884335;29;20215;-85
2021/10/14 02:01:14;;;;;;;14.87;7.93;;;14.50;99.90;;;;;;4884214;29;20215;-85
2021/10/14 02:03:41;;;;;;;12.77;8.20;;;14.40;99.90;;;;;;4883851;29;20298;-88
2021/10/14 02:06:07;;;;;;;11.93;7.80;;;14.40;99.90;;;;;;4884060;29;20196;-85
2021/10/14 02:08:34;;;;;;;10.80;7.57;;;14.30;99.90;;;;;;4884139;29;20668;-85
2021/10/14 02:11:01;;;;;;;15.68;8.35;;;14.40;99.90;;;;;;4883887;29;20236;-86
2021/10/14 02:13:30;;;;;;;13.93;8.40;;;14.40;99.90;;;;;;4884055;29;20517;-87
2021/10/14 02:15:56;;;;;;;12.15;8.05;;;14.40;99.90;;;;;;4884064;29;20207;-88
2021/10/14 02:18:23;;;;;;;12.93;7.45;;;14.40;99.90;;;;;;4883790;29;20231;-87
2021/10/14 02:20:50;;;;;;;15.65;8.73;;;14.40;99.90;;;;;;4883719;29;20585;-87
2021/10/14 02:23:17;;;;;;;14.70;7.73;;;14.40;99.90;;;;;;4883731;29;20507;-83
2021/10/14 02:25:44;;;;;;;12.25;7.38;;;14.50;99.90;;;;;;4883900;29;20209;-83
2021/10/14 02:28:10;;;;;;;9.43;6.90;;;14.50;99.90;;;;;;4884057;29;20215;-86
2021/10/14 02:30:39;;;;;;;9.13;8.23;;;14.50;99.90;;;;;;4883289;29;20239;-87
2021/10/14 02:33:05;;;;;;;11.48;6.88;;;14.50;99.90;;;;;;4884038;29;20212;-83
2021/10/14 02:35:32;;;;;;;11.18;6.82;;;14.50;99.90;;;;;;4883470;29;20208;-86
2021/10/14 02:37:59;;;;;;;13.25;7.28;;;14.40;99.90;;;;;;4883040;29;20204;-89
2021/10/14 02:40:26;;;;;;;11.23;7.30;;;14.40;99.90;;;;;;4883565;29;20211;-84
2021/10/14 02:42:52;;;;;;;10.95;7.35;;;14.40;99.90;;;;;;4883506;29;20204;-89
2021/10/14 02:45:19;;;;;;;9.18;6.93;;;14.40;99.90;;;;;;4883199;29;20200;-83
2021/10/14 02:47:47;;;;;;;11.73;6.60;;;14.30;99.90;;;;;;4884742;29;20208;-88
2021/10/14 02:50:14;;;;;;;15.15;7.45;;;14.30;99.90;;;;;;4884683;29;20231;-88
2021/10/14 02:52:41;;;;;;;10.40;6.53;;;14.40;99.90;;;;;;4883114;29;20223;-88
2021/10/14 02:55:09;;;;;;;14.30;6.90;;;14.30;99.90;;;;;;4883550;29;20204;-88
2021/10/14 02:57:36;;;;;;;15.75;6.15;;;14.30;99.90;;;;;;4883661;29;20204;-87
2021/10/14 03:00:04;;;;;;;10.80;5.50;;;14.30;99.90;;;;;;4883267;29;20204;-88
2021/10/14 03:02:30;;;;;;;11.35;5.15;;;14.30;99.90;;;;;;4884015;29;20280;-87
2021/10/14 03:04:58;;;;;;;7.95;5.30;;;14.20;99.90;;;;;;4886248;29;20215;-89
2021/10/14 03:07:25;;;;;;;9.43;5.37;;;14.30;99.90;;;;;;4895745;29;20240;-88
2021/10/14 03:09:52;;;;;;;9.40;5.43;;;14.20;99.90;;;;;;4911747;29;20287;-89
2021/10/14 03:12:19;;;;;;;9.50;5.50;;;14.30;99.90;;;;;;4890219;29;20284;-87
2021/10/14 03:14:46;;;;;;;9.23;4.93;;;14.30;99.90;;;;;;4883136;29;20204;-82
2021/10/14 03:17:12;;;;;;;8.52;5.07;;;14.30;99.90;;;;;;4883194;29;20192;-81
2021/10/14 03:19:39;;;;;;;10.40;4.30;;;14.40;99.90;;;;;;4883048;29;20856;-83
2021/10/14 03:22:08;;;;;;;8.02;4.50;;;14.30;99.90;;;;;;4883149;29;20212;-82
2021/10/14 03:24:34;;;;;;;11.10;4.63;;;14.30;99.90;;;;;;4883429;29;20227;-84
2021/10/14 03:27:01;;;;;;;12.00;4.70;;;14.30;99.90;;;;;;4882259;29;20617;-84
2021/10/14 03:29:28;;;;;;;10.57;4.10;;;14.30;99.90;;;;;;4882583;29;20204;-83
2021/10/14 03:31:55;;;;;;;8.15;4.22;;;14.20;99.90;;;;;;4882457;29;20228;-84
2021/10/14 03:34:21;;;;;;;12.27;5.00;;;14.20;99.90;;;;;;4882666;29;20239;-85
2021/10/14 03:36:48;;;;;;;7.67;4.80;;;14.20;99.90;;;;;;4882974;29;20207;-89
2021/10/14 03:39:17;;;;;;;9.60;3.87;;;14.20;99.90;;;;;;4882512;29;20493;-89
2021/10/14 03:41:43;;;;;;;11.03;3.70;;;14.20;99.90;;;;;;4882102;29;20208;-81
2021/10/14 03:44:13;;;;;;;6.47;3.13;;;14.20;99.90;;;;;;4874876;29;20208;-81
2021/10/14 03:46:40;;;;;;;8.27;3.83;;;14.20;99.90;;;;;;4882563;29;20264;-83
2021/10/14 03:49:07;;;;;;;7.20;3.22;;;14.30;99.90;;;;;;4881619;29;20263;-87
2021/10/14 03:51:34;;;;;;;7.40;3.87;;;14.20;99.90;;;;;;4882441;29;20224;-83
2021/10/14 03:54:01;;;;;;;7.07;3.30;;;14.20;99.90;;;;;;4885544;29;20222;-90
2021/10/14 03:56:29;;;;;;;7.20;3.97;;;14.20;99.90;;;;;;4900716;29;20195;-85
2021/10/14 03:58:56;;;;;;;9.30;3.90;;;14.30;99.90;;;;;;4891015;29;20219;-85
2021/10/14 04:01:22;;;;;;;7.83;3.73;;;14.20;99.90;;;;;;4882374;29;20199;-83
2021/10/14 04:03:49;;;;;;;7.37;3.30;;;14.20;99.90;;;;;;4882138;29;20204;-85
2021/10/14 04:06:16;;;;;;;7.23;2.43;;;14.30;99.90;;;;;;4881751;29;20248;-86
2021/10/14 04:08:43;;;;;;;6.00;2.38;;;14.40;99.90;;;;;;4881897;29;20224;-85
2021/10/14 04:11:10;;;;;;;4.23;2.10;;;14.30;99.90;;;;;;4882044;29;20231;-84
2021/10/14 04:13:39;;;;;;;6.30;2.10;;;14.30;99.90;;;;;;4881577;29;20211;-86
2021/10/14 04:16:06;;;;;;;5.10;2.23;;;14.30;99.90;;;;;;4882800;29;20204;-82
2021/10/14 04:18:33;;;;;;;5.90;2.10;;;14.30;99.90;;;;;;4883550;29;20200;-88
2021/10/14 04:20:59;;;;;;;3.20;2.03;;;14.30;99.90;;;;;;4892381;29;20208;-90
2021/10/14 04:23:26;;;;;;;3.63;2.30;;;14.30;99.90;;;;;;4900886;29;20256;-86
2021/10/14 04:25:53;;;;;;;3.80;2.43;;;14.30;99.90;;;;;;4900621;29;20510;-86
2021/10/14 04:28:20;;;;;;;4.23;2.40;;;14.40;99.90;;;;;;4901165;29;20214;-88
2021/10/14 04:30:49;;;;;;;5.03;2.47;;;14.40;99.90;;;;;;4900458;29;20226;-89
2021/10/14 04:33:16;;;;;;;3.93;2.23;;;14.40;99.90;;;;;;4900709;29;20224;-89
2021/10/14 04:35:43;;;;;;;6.60;2.47;;;14.40;99.90;;;;;;4901138;29;20589;-91
2021/10/14 04:38:10;;;;;;;11.70;3.03;;;14.40;99.90;;;;;;4900591;29;20234;-89
2021/10/14 04:40:36;;;;;;;6.87;2.67;;;14.40;99.90;;;;;;4900784;29;20206;-89
2021/10/14 04:43:03;;;;;;;6.20;2.40;;;14.50;99.90;;;;;;4881855;29;20208;-89
2021/10/14 04:45:30;;;;;;;6.63;3.00;;;14.50;99.90;;;;;;4881827;29;20208;-90
2021/10/14 04:47:58;;;;;;;5.63;3.30;;;14.50;99.90;;;;;;4881955;29;20215;-88
2021/10/14 04:50:25;;;;;;;9.37;3.00;;;14.50;99.90;;;;;;4881707;29;20219;-83
2021/10/14 04:52:52;;;;;;;9.60;4.20;;;14.60;99.90;;;;;;4881634;29;20251;-86
2021/10/14 04:55:18;;;;;;;7.47;3.43;;;14.60;99.90;;;;;;4882056;29;20490;-86
2021/10/14 04:57:45;;;;;;;9.48;3.83;;;14.60;99.90;;;;;;4881910;29;20215;-83
2021/10/14 05:00:13;;;;;;;11.57;4.07;;;14.60;99.90;;;;;;4881539;29;20211;-85
2021/10/14 05:02:40;;;;;;;7.03;3.57;;;14.60;99.90;;;;;;4881517;29;20207;-87
2021/10/14 05:05:09;;;;;;;6.73;2.97;;;14.60;99.90;;;;;;4881419;29;20241;-86
2021/10/14 05:07:36;;;;;;;7.20;2.90;;;14.60;99.90;;;;;;4881395;29;20239;-89
2021/10/14 05:10:03;;;;;;;5.87;2.67;;;14.60;99.90;;;;;;4881647;29;20231;-83
2021/10/14 05:12:30;;;;;;;5.13;2.33;;;14.60;99.90;;;;;;4881337;29;20310;-83
2021/10/14 05:14:57;;;;;;;7.90;3.10;;;14.60;99.90;;;;;;4881705;29;20212;-83
2021/10/14 05:17:23;;;;;;;7.47;3.40;;;14.60;99.90;;;;;;4881586;29;20208;-86
2021/10/14 05:19:50;;;;;;;5.75;3.00;;;14.60;99.90;;;;;;4882123;29;20211;-82
2021/10/14 05:22:19;;;;;;;7.77;3.40;;;14.60;99.90;;;;;;4900384;29;20597;-82
2021/10/14 05:24:45;;;;;;;7.87;3.00;;;14.70;99.90;;;;;;4903945;29;20200;-84
2021/10/14 05:27:12;;;;;;;4.80;2.70;;;14.70;99.90;;;;;;4903781;29;20203;-86
2021/10/14 05:29:39;;;;;;;5.47;3.10;;;14.70;99.90;;;;;;4901144;29;20223;-86
2021/10/14 05:32:06;;;;;;;5.40;2.60;;;14.70;99.90;;;;;;4884974;29;20255;-85
2021/10/14 05:34:33;;;;;;;7.37;3.00;;;14.80;99.90;;;;;;4885144;29;20240;-86
2021/10/14 05:37:00;;;;;;;3.73;2.70;;;14.80;99.90;;;;;;4884976;29;20219;-87
2021/10/14 05:39:28;;;;;;;4.70;2.10;;;14.80;99.90;;;;;;4885654;29;20239;-86
2021/10/14 05:41:55;;;;;;;7.27;2.40;;;14.80;99.90;;;;;;4885442;29;20561;-85
2021/10/14 05:44:22;;;;;;;4.53;2.10;;;14.80;99.90;;;;;;4885156;29;20219;-86
2021/10/14 05:46:49;;;;;;;4.30;2.40;;;14.70;99.90;;;;;;4890907;29;20196;-85
2021/10/14 05:49:15;;;;;;;5.00;2.30;;;14.70;99.90;;;;;;4886646;29;20197;-91
2021/10/14 05:51:42;;;;;;;6.63;2.23;;;14.60;99.90;;;;;;4887676;29;20232;-89
2021/10/14 05:54:09;;;;;;;6.10;3.10;;;14.60;99.90;;;;;;4877779;29;20208;-89
2021/10/14 05:56:37;;;;;;;4.20;2.33;;;14.60;99.90;;;;;;4885213;29;20210;-88
2021/10/14 05:59:04;;;;;;;6.30;2.15;;;14.70;99.90;;;;;;4884686;29;20208;-89
2021/10/14 06:01:31;;;;;;;3.67;2.60;;;14.60;99.90;;;;;;4898804;29;20219;-93
2021/10/14 06:03:58;;;;;;;3.87;2.50;;;14.60;99.90;;;;;;4903298;29;20204;-88
2021/10/14 06:06:24;;;;;;;4.03;2.43;;;14.60;99.90;;;;;;4903043;29;20250;-87
2021/10/14 06:08:51;;;;;;;6.40;3.13;;;14.60;99.90;;;;;;4902412;29;20227;-88
2021/10/14 06:11:18;;;;;;;4.67;2.30;;;14.50;99.90;;;;;;4902767;29;20224;-87
2021/10/14 06:13:46;;;;;;;6.37;3.10;;;14.50;99.90;;;;;;4903083;29;20211;-91
2021/10/14 06:16:13;;;;;;;6.80;2.73;;;14.50;99.90;;;;;;4901545;29;20204;-88
2021/10/14 06:18:40;;;;;;;5.73;2.97;;;14.50;99.90;;;;;;4884482;29;20501;-88
2021/10/14 06:21:07;;;;;;;7.00;3.30;;;14.50;99.90;;;;;;4897520;29;20203;-87
2021/10/14 06:23:34;;;;;;;9.83;3.57;;;14.50;99.90;;;;;;4898949;29;20212;-87
2021/10/14 06:26:00;;;;;;;7.80;3.40;;;14.50;99.90;;;;;;4903189;29;20196;-87
2021/10/14 06:28:27;;;;;;;5.53;3.23;;;14.50;99.90;;;;;;4902854;29;20211;-88
2021/10/14 06:30:56;;;;;;;7.53;3.00;;;14.50;99.90;;;;;;4902811;29;20199;-85
2021/10/14 06:33:22;;;;;;;7.83;3.47;;;14.50;99.90;;;;;;4892230;29;20235;-86
2021/10/14 06:35:49;;;;;;;4.90;2.90;;;14.50;99.90;;;;;;4883987;29;20537;-85
2021/10/14 06:38:16;;;;;;;9.07;2.83;;;14.60;99.90;;;;;;4883709;29;20200;-86
2021/10/14 06:40:43;;;;;;;7.37;3.37;;;14.60;99.90;;;;;;4883914;29;20240;-87
2021/10/14 06:43:09;;;;;;;8.07;3.73;;;14.50;99.90;;;;;;4883891;29;20204;-84
2021/10/14 06:45:37;;;;;;;9.30;3.70;;;14.50;99.90;;;;;;4883590;29;20216;-88
2021/10/14 06:48:05;;;;;;;7.30;3.43;;;14.50;99.90;;;;;;4884109;29;20252;-88
2021/10/14 06:50:32;;;;;;;9.30;2.90;;;14.60;99.90;;;;;;4899251;29;20218;-83
2021/10/14 06:53:00;;;;;;;8.67;2.93;;;14.60;99.90;;;;;;4902621;29;20255;-85
2021/10/14 06:55:26;;;;;;;6.13;2.33;;;14.60;99.90;;;;;;4903156;29;20212;-85
2021/10/14 06:57:53;;;;;;;7.77;2.43;;;14.60;99.90;;;;;;4892551;29;20212;-86
2021/10/14 07:00:22;;;;;;;7.53;2.13;;;14.60;99.90;;;;;;4885694;29;20216;-86
2021/10/14 07:02:49;;;;;;;6.23;2.50;;;14.70;99.90;;;;;;4890491;29;20203;-85
2021/10/14 07:05:18;;;;;;;7.77;3.20;;;14.60;99.90;;;;;;4902846;29;20640;-84
2021/10/14 07:07:44;;;;;;;9.50;3.23;;;14.70;99.90;;;;;;4901865;29;20239;-86
2021/10/14 07:10:11;;;;;;;8.10;2.97;;;14.70;99.90;;;;;;4887058;29;20203;-84
2021/10/14 07:12:40;;;;;;;8.67;3.20;;;14.70;99.90;;;;;;4883139;29;20296;-83
2021/10/14 07:15:09;;;;;;;10.10;3.37;;;14.70;99.90;;;;;;4899140;29;20250;-84
2021/10/14 07:17:36;;;;;;;8.43;3.27;;;14.80;99.90;;;;;;4904142;29;20212;-88
2021/10/14 07:20:04;;;;;;;6.33;3.07;;;14.70;99.90;;;;;;4886012;29;20200;-86
2021/10/14 07:22:32;;;;;;;9.03;3.60;;;14.80;99.90;;;;;;4885198;29;20215;-88
2021/10/14 07:24:59;;;;;;;6.37;2.60;;;14.70;99.90;;;;;;4883344;29;20608;-87
2021/10/14 07:27:26;;;;;;;5.17;2.60;;;14.70;99.90;;;;;;4883031;29;20219;-85
2021/10/14 07:29:53;;;;;;;6.77;3.17;;;14.70;99.90;;;;;;4883343;29;20585;-85
2021/10/14 07:32:19;;;;;;;5.80;2.83;;;14.70;99.90;;;;;;4901008;29;20250;-82
2021/10/14 07:34:46;;;;;;;5.68;2.70;;;14.70;99.90;;;;;;4901536;29;20234;-82
2021/10/14 07:37:18;;;;;;;8.27;3.10;;;14.70;99.90;;;;;;4901445;29;20210;-87
2021/10/14 07:39:48;;;;;;;7.33;3.67;;;14.70;99.90;;;;;;4889334;29;20216;-85
2021/10/14 07:42:15;;;;;;;8.03;3.50;;;14.70;99.90;;;;;;4883168;29;20207;-87
2021/10/14 07:44:42;;;;;;;7.80;3.30;;;14.70;99.90;;;;;;4883086;29;20623;-88
2021/10/14 07:47:09;;;;;;;9.13;3.53;;;14.70;99.90;;;;;;4885904;29;20203;-87
2021/10/14 07:49:36;;;;;;;7.40;3.70;;;14.80;99.90;;;;;;4901920;29;20212;-85
2021/10/14 07:52:04;;;;;;;7.23;2.83;;;14.80;99.90;;;;;;4901091;29;20522;-87
2021/10/14 07:54:30;;;;;;;8.63;2.80;;;14.80;99.90;;;;;;4892358;29;20620;-88
2021/10/14 07:56:58;;;;;;;6.37;2.97;;;14.90;99.90;;;;;;4882633;29;20197;-87
2021/10/14 07:59:25;;;;;;;3.95;2.30;;;14.90;99.90;;;;;;4882327;29;20211;-85
2021/10/14 08:01:52;;;;;;;3.13;1.77;;;14.90;99.90;;;;;;4882324;29;20208;-84
2021/10/14 08:04:19;;;;;;;2.22;1.85;;;14.90;99.90;;;;;;4891233;29;20218;-84
2021/10/14 08:06:46;;;;;;;3.90;2.13;;;14.90;99.90;;;;;;4900865;29;20254;-86
2021/10/14 08:09:12;;;;;;;4.20;2.00;;;14.90;99.90;;;;;;4900381;29;20203;-87
2021/10/14 08:11:39;;;;;;;4.13;1.90;;;14.90;99.90;;;;;;4900972;29;20492;-86
2021/10/14 08:14:07;;;;;;;4.90;2.85;;;14.90;99.90;;;;;;4885550;29;20514;-88
2021/10/14 08:16:34;;;;;;;5.50;3.30;;;14.90;99.90;;;;;;4882284;29;20238;-85
2021/10/14 08:19:01;;;;;;;6.20;3.30;;;15.00;99.90;;;;;;4890418;29;20226;-85
2021/10/14 08:21:28;;;;;;;6.20;3.17;;;15.00;99.90;;;;;;4900740;29;20203;-85
2021/10/14 08:23:54;;;;;;;7.05;3.38;;;15.00;99.90;;;;;;4900878;29;20199;-88
2021/10/14 08:26:21;;;;;;;5.43;3.03;;;15.00;99.90;;;;;;4887985;29;20215;-87
2021/10/14 08:28:48;;;;;;;5.27;3.23;;;15.00;99.90;;;;;;4882185;29;20506;-85
2021/10/14 08:31:18;;;;;;;6.10;2.80;;;15.10;99.90;;;;;;4882385;29;20211;-87
2021/10/14 08:33:45;;;;;;;5.63;2.53;;;15.10;99.90;;;;;;4882443;29;20232;-85
2021/10/14 08:36:12;;;;;;;5.20;2.50;;;15.10;99.90;;;;;;4886828;29;20242;-85
2021/10/14 08:38:38;;;;;;;5.93;2.47;;;15.10;99.90;;;;;;4900805;29;20543;-85
2021/10/14 08:41:05;;;;;;;8.60;3.40;;;15.00;99.90;;;;;;4900308;29;20539;-85
2021/10/14 08:43:36;;;;;;;4.93;3.03;;;15.00;99.90;;;;;;4900738;29;20199;-85
2021/10/14 08:46:04;;;;;;;4.30;2.70;;;15.00;99.90;;;;;;4900946;29;20589;-89
2021/10/14 08:48:32;;;;;;;3.53;2.60;;;15.00;99.90;;;;;;4885606;29;20211;-86
2021/10/14 08:50:59;;;;;;;7.00;3.33;;;15.00;99.90;;;;;;4885222;29;20204;-86
2021/10/14 08:53:25;;;;;;;6.53;3.63;;;15.00;99.90;;;;;;4886586;29;20509;-85
2021/10/14 08:55:52;;;;;;;7.27;3.57;;;15.10;99.90;;;;;;4882470;29;20234;-87
2021/10/14 08:58:19;;;;;;;9.57;3.67;;;15.10;99.90;;;;;;4882826;29;20212;-86
2021/10/14 09:01:05;;;;;;;5.82;4.13;;;15.10;99.90;;;;;;4886118;29;20577;-87
2021/10/14 09:03:36;;;;;;;5.50;3.33;;;15.10;99.90;;;;;;4885325;29;20505;-89
2021/10/14 09:06:08;;;;;;;5.72;3.20;;;15.20;99.90;;;;;;4885141;29;20248;-87
2021/10/14 09:08:36;;;;;;;6.68;3.45;;;15.20;99.90;;;;;;4885556;29;20251;-86
2021/10/14 09:11:08;;;;;;;7.38;3.20;;;15.30;99.90;;;;;;4903512;29;20219;-87
2021/10/14 09:13:35;;;;;;;6.50;3.37;;;15.30;99.90;;;;;;4900132;29;20227;-85
2021/10/14 09:16:23;;;;;;;4.70;3.43;;;15.30;99.90;;;;;;4885768;29;20231;-86
2021/10/14 09:18:52;;;;;;;7.40;4.00;;;15.30;99.90;;;;;;4885338;29;20204;-88
2021/10/14 09:21:25;;;;;;;6.43;4.03;;;15.30;99.90;;;;;;4886220;29;20223;-86
2021/10/14 09:23:52;;;;;;;7.13;3.77;;;15.30;99.90;;;;;;4893275;29;20207;-85
2021/10/14 09:26:36;;;;;;;5.27;3.53;;;15.30;99.90;;;;;;4903989;29;20199;-86
2021/10/14 09:29:11;;;;;;;7.70;3.40;;;15.20;99.90;;;;;;4903349;29;20286;-87
2021/10/14 09:31:50;;;;;;;6.65;3.28;;;15.30;99.90;;;;;;4885163;29;20207;-87
2021/10/14 09:34:39;;;;;;;5.20;3.45;;;15.30;99.90;;;;;;4887469;29;20227;-86
2021/10/14 09:37:25;;;;;;;5.33;2.73;;;15.30;99.90;;;;;;4903491;29;20200;-87
2021/10/14 09:39:56;;;;;;;6.07;3.20;;;15.30;99.90;;;;;;4903306;29;20214;-89
2021/10/14 09:42:39;;;;;;;4.27;2.77;;;15.30;99.90;;;;;;4886557;29;20208;-88
2021/10/14 09:45:21;;;;;;;6.67;1.73;;;15.30;99.90;;;;;;4881954;29;20210;-89
2021/10/14 09:47:50;;;;;;;5.80;1.80;;;15.30;99.90;;;;;;4884379;29;20207;-91
2021/10/14 09:50:20;;;;;;;6.07;2.03;;;15.30;99.90;;;;;;4884985;29;20215;-87
2021/10/14 09:52:47;;;;;;;4.00;1.80;;;15.30;99.90;;;;;;4884720;29;20235;-90
2021/10/14 09:55:15;;;;;;;6.88;2.20;;;15.40;99.90;;;;;;4884168;29;20523;-91
2021/10/14 09:57:42;;;;;;;4.83;2.20;;;15.50;99.90;;;;;;4884647;29;20492;-87
2021/10/14 10:00:10;;;;;;;4.37;1.90;;;15.50;99.90;;;;;;4899306;29;20211;-91
2021/10/14 10:02:39;;;;;;;3.63;1.53;;;15.60;99.90;;;;;;4897967;29;20208;-88
2021/10/14 10:05:07;;;;;;;5.28;1.60;;;15.60;99.90;;;;;;4884832;29;20248;-85
2021/10/14 10:07:38;;;;;;;3.47;1.90;;;15.60;99.90;;;;;;4884558;29;20268;-86
2021/10/14 10:10:07;;;;;;;5.03;2.22;;;15.70;99.90;;;;;;4884191;29;20600;-85
2021/10/14 10:12:35;;;;;;;3.55;1.73;;;15.70;99.90;;;;;;4884620;29;20582;-86
2021/10/14 10:15:02;;;;;;;4.80;1.65;;;15.70;99.90;;;;;;4884255;29;20216;-89
2021/10/14 10:17:37;;;;;;;2.70;1.63;;;15.70;99.90;;;;;;4884601;29;20276;-88
2021/10/14 10:20:05;;;;;;;3.75;1.83;;;15.70;99.90;;;;;;4888017;29;20264;-88
2021/10/14 10:22:53;;;;;;;3.28;1.88;;;15.60;99.90;;;;;;4888056;29;20207;-86
2021/10/14 10:25:36;;;;;;;3.10;1.80;;;15.60;99.90;;;;;;4885918;29;20283;-86
2021/10/14 10:28:06;;;;;;;4.43;1.83;;;15.70;99.90;;;;;;4884397;29;20223;-85
2021/10/14 10:30:35;;;;;;;3.30;1.97;;;15.70;99.90;;;;;;4883479;29;20610;-84
2021/10/14 10:33:03;;;;;;;5.35;2.13;;;15.80;99.90;;;;;;4883517;29;20651;-86
2021/10/14 10:35:41;;;;;;;8.05;2.30;;;15.90;99.90;;;;;;4884830;29;20260;-86
2021/10/14 10:38:17;;;;;;;3.07;2.20;;;15.90;99.90;;;;;;4902463;29;20298;-86
2021/10/14 10:40:45;;;;;;;6.32;2.50;;;16.00;99.90;;;;;;4902156;29;20194;-84
2021/10/14 10:43:14;;;;;;;5.07;2.65;;;16.10;99.90;;;;;;4902058;29;20293;-85
2021/10/14 10:45:46;;;;;;;3.67;2.30;;;16.10;99.90;;;;;;4883782;29;20208;-85
2021/10/14 10:48:14;;;;;;;3.08;1.88;;;16.30;99.90;;;;;;4883729;29;20203;-86
2021/10/14 10:50:51;;;;;;;6.90;2.72;;;16.50;99.90;;;;;;4883584;29;20208;-85
2021/10/14 10:53:22;;;;;;;8.30;3.15;;;16.70;99.90;;;;;;4884197;29;20239;-86
2021/10/14 10:55:53;;;;;;;6.78;2.30;;;16.70;99.90;;;;;;4883593;29;20200;-84
2021/10/14 10:58:44;;;;;;;2.40;1.95;;;16.60;99.90;;;;;;4883149;29;20188;-85
2021/10/14 11:01:11;;;;;;;6.13;2.30;;;16.60;99.90;;;;;;4883814;29;20287;-85
2021/10/14 11:03:39;;;;;;;4.40;2.10;;;16.60;99.90;;;;;;4882997;29;20208;-85
2021/10/14 11:06:10;;;;;;;3.95;2.33;;;16.60;99.90;;;;;;4883318;29;20562;-86
2021/10/14 11:08:38;;;;;;;4.55;2.20;;;16.70;99.90;;;;;;4884048;29;20223;-86
2021/10/14 11:11:06;;;;;;;2.88;1.70;;;16.80;99.90;;;;;;4883059;29;20716;-84
2021/10/14 11:13:35;;;;;;;5.65;2.08;;;16.70;99.90;;;;;;4883136;29;20235;-85
2021/10/14 11:16:04;;;;;;;3.03;1.73;;;16.70;99.90;;;;;;4883431;29;20649;-85
2021/10/14 11:18:31;;;;;;;5.93;2.03;;;16.70;99.90;;;;;;4890559;29;20512;-87
2021/10/14 11:21:01;;;;;;;7.45;1.98;;;16.70;99.90;;;;;;4901925;29;20203;-85
2021/10/14 11:23:30;;;;;;;5.50;2.92;;;16.60;99.90;;;;;;4902218;29;20192;-85
2021/10/14 11:26:12;;;;;;;3.90;2.05;;;16.50;99.90;;;;;;4901751;29;20610;-87
2021/10/14 11:28:56;;;;;;;3.90;2.05;;;16.60;99.90;;;;;;4890998;29;20291;-88
2021/10/14 11:31:29;;;;;;;2.75;1.85;;;16.60;99.90;;;;;;4882874;29;20200;-83
2021/10/14 11:34:03;;;;;;;8.95;2.40;;;16.60;99.90;;;;;;4882867;29;20216;-88
2021/10/14 11:36:30;;;;;;;9.30;2.53;;;16.50;99.90;;;;;;4883140;29;20211;-87
2021/10/14 11:38:59;;;;;;;5.63;2.22;;;16.50;99.90;;;;;;4896161;29;20222;-85
2021/10/14 11:41:28;;;;;;;5.47;1.98;;;16.50;99.90;;;;;;4901307;29;20212;-87
2021/10/14 11:43:56;;;;;;;6.90;1.77;;;16.60;99.90;;;;;;4901992;29;20199;-88
2021/10/14 11:46:25;;;;;;;3.97;2.10;;;16.80;99.90;;;;;;4901698;29;20214;-86
2021/10/14 11:48:56;;;;;;;5.38;1.73;;;16.90;99.90;;;;;;4888638;29;20223;-86
2021/10/14 11:51:23;;;;;;;3.95;1.65;;;17.00;99.90;;;;;;4883527;29;20263;-83
2021/10/14 11:53:57;;;;;;;2.80;1.50;;;17.10;99.90;;;;;;4884352;29;20577;-86
2021/10/14 11:56:24;;;;;;;3.63;1.38;;;17.20;99.90;;;;;;4884680;29;20223;-85
2021/10/14 11:58:52;;;;;;;5.75;1.77;;;17.20;99.90;;;;;;4882672;29;20214;-87
2021/10/14 12:01:22;;;;;;;3.63;1.75;;;17.20;99.90;;;;;;4882532;29;20226;-86
2021/10/14 12:03:50;;;;;;;5.32;1.98;;;17.10;99.90;;;;;;4882722;29;20200;-86
2021/10/14 12:06:18;;;;;;;3.15;1.50;;;17.00;99.90;;;;;;4882262;29;20668;-86
2021/10/14 12:08:45;;;;;;;5.45;1.55;;;16.80;99.90;;;;;;4882318;29;20555;-86
2021/10/14 12:11:20;;;;;;;5.40;1.52;;;16.70;99.90;;;;;;4882229;29;20300;-83
2021/10/14 12:14:04;;;;;;;4.25;1.42;;;16.60;99.90;;;;;;4882316;29;20532;-88
2021/10/14 12:16:33;;;;;;;3.58;1.63;;;16.50;99.90;;;;;;4882634;29;20191;-85
2021/10/14 12:19:13;;;;;;;5.43;1.65;;;16.50;99.90;;;;;;4882381;29;20207;-87
2021/10/14 12:21:41;;;;;;;8.25;2.15;;;16.50;99.90;;;;;;4882251;29;20216;-86
2021/10/14 12:24:11;;;;;;;5.15;1.70;;;16.50;99.90;;;;;;4899189;29;20562;-88
2021/10/14 12:26:41;;;;;;;6.25;1.80;;;16.50;99.90;;;;;;4900698;29;20290;-85
2021/10/14 12:29:28;;;;;;;7.13;2.03;;;16.50;99.90;;;;;;4899698;29;20519;-86
2021/10/14 12:32:14;;;;;;;5.30;2.00;;;16.60;99.90;;;;;;4897586;29;20219;-88
2021/10/14 12:34:53;;;;;;;4.50;1.98;;;16.60;99.90;;;;;;4881406;29;20231;-85
2021/10/14 12:37:26;;;;;;;4.30;2.10;;;16.60;99.90;;;;;;4881895;29;20236;-85
2021/10/14 12:40:14;;;;;;;6.57;2.03;;;16.50;99.90;;;;;;4882491;29;20207;-87
2021/10/14 12:42:53;;;;;;;5.00;1.80;;;16.50;99.90;;;;;;4881633;29;20208;-85
2021/10/14 12:45:35;;;;;;;10.50;1.90;;;16.40;99.90;;;;;;4881677;29;20226;-86
2021/10/14 12:48:14;;;;;;;4.78;1.67;;;16.40;99.90;;;;;;4881821;29;20208;-86
2021/10/14 12:51:05;;;;;;;4.63;1.45;;;16.50;99.90;;;;;;4899680;29;20206;-85
2021/10/14 12:53:44;;;;;;;4.53;1.60;;;16.50;99.90;;;;;;4900051;29;20246;-86